EDT,Max TemperatureF,Mean TemperatureF,Min TemperatureF,Max Dew PointF,MeanDew PointF,Min DewpointF,Max Humidity, Mean Humidity, Min Humidity, Max Sea Level PressureIn, Mean Sea Level PressureIn, Min Sea Level PressureIn, Max VisibilityMiles, Mean VisibilityMiles, Min VisibilityMiles, Max Wind SpeedMPH, Mean Wind SpeedMPH, Max Gust SpeedMPH,PrecipitationIn, CloudCover, Events, WindDirDegrees
2013-7-1,66,62,59,59,54,46,90,75,58,30.06,30.00,29.94,10,10,5,12,7,,0.25,5,Rain,33
2013-7-2,73,66,59,63,59,54,94,79,68,30.07,30.04,30.02,10,10,8,8,5,,0.02,6,Rain,66
2013-7-3,82,70,59,68,63,57,100,82,54,30.12,30.08,30.04,10,7,1,10,3,,0.00,4,,157
2013-7-4,80,70,62,67,64,62,100,88,58,30.15,30.10,30.08,10,5,0,9,1,,0.00,3,Fog,239
2013-7-5,82,75,69,70,67,62,94,81,52,30.12,30.09,30.06,10,7,1,8,3,,0.03,5,Rain,236
2013-7-6,82,73,64,72,67,63,100,91,65,30.12,30.08,30.00,10,5,0,10,1,17,0.20,3,Fog-Rain,184
2013-7-7,81,75,68,70,68,65,100,87,65,30.05,30.03,29.97,10,7,1,10,5,,0.58,7,Rain-Thunderstorm,232
2013-7-8,84,73,64,75,70,64,100,84,70,30.05,30.01,29.99,10,8,2,14,4,32,0.04,4,Rain-Thunderstorm,224
2013-7-9,88,78,69,74,71,68,100,89,61,30.00,29.96,29.88,10,5,0,22,3,30,0.30,6,Fog-Rain-Thunderstorm,243
2013-7-10,87,76,69,76,70,56,96,82,54,29.94,29.83,29.78,10,7,1,28,7,37,0.21,4,Rain-Thunderstorm,242
2013-7-11,80,70,57,57,55,52,96,61,44,30.07,30.02,29.95,10,10,10,13,6,18,0.00,2,,7
2013-7-12,81,66,51,61,57,51,100,73,43,30.16,30.12,30.08,10,10,6,12,3,,0.00,1,,80
2013-7-13,82,71,60,66,62,57,93,72,46,30.22,30.18,30.14,10,10,7,9,4,,0.01,0,,92
2013-7-14,88,75,62,71,67,61,97,76,53,30.26,30.24,30.21,10,10,4,7,3,,0.00,2,,117
2013-7-15,91,78,66,75,72,66,100,86,59,30.30,30.27,30.23,10,6,0,12,2,24,0.56,4,Fog-Rain-Thunderstorm,164
2013-7-16,91,82,73,77,74,71,97,79,55,30.31,30.27,30.24,10,8,1,10,4,,0.02,3,Thunderstorm,273
2013-7-17,91,80,70,77,74,69,97,79,63,30.29,30.23,30.16,10,9,4,12,4,,0.00,1,Rain,276
2013-7-18,93,80,70,76,73,69,97,77,55,30.16,30.07,29.97,10,9,2,14,4,,0.00,1,Thunderstorm,255
2013-7-19,93,83,75,74,72,69,91,70,52,29.97,29.83,29.74,10,10,7,23,10,28,0.00,1,Thunderstorm,239
2013-7-20,86,76,64,73,67,58,100,77,41,29.93,29.82,29.72,10,9,2,17,7,34,0.26,4,Rain-Thunderstorm,324
2013-7-21,82,73,64,66,61,54,93,69,50,30.01,29.96,29.92,10,10,6,7,3,,0.00,1,,80
2013-7-22,81,72,64,69,66,62,97,80,54,29.95,29.86,29.77,10,9,4,8,2,,0.03,2,Rain,162
2013-7-23,87,74,59,71,64,50,100,84,58,29.88,29.75,29.68,10,6,0,17,4,23,0.07,3,Fog-Rain-Thunderstorm,291
2013-7-24,73,65,53,52,50,48,93,64,46,30.06,29.99,29.90,10,10,10,12,7,17,0.00,3,,14
2013-7-25,75,58,42,56,49,43,100,84,41,30.12,30.08,30.06,10,6,0,6,1,,0.00,0,Fog,168
2013-7-26,79,63,48,61,55,48,100,83,50,30.11,30.04,29.92,10,5,0,15,1,18,0.00,1,Fog-Rain,191
2013-7-27,75,64,52,67,62,49,96,88,73,29.91,29.82,29.74,10,7,0,15,5,25,0.43,6,Fog-Rain-Thunderstorm,216
2013-7-28,66,56,48,53,51,47,97,80,63,29.99,29.90,29.85,10,10,9,17,7,22,0.00,6,,234
2013-7-29,70,62,53,56,53,50,96,78,53,30.19,30.09,29.99,10,10,2,15,5,21,0.00,6,,273
2013-7-30,78,62,46,61,52,45,100,85,48,30.24,30.19,30.13,10,5,0,7,2,,0.00,0,Fog,222
2013-7-31,77,68,60,68,65,59,96,89,67,30.13,29.97,29.89,10,6,2,9,3,,0.15,7,Rain,223